sensor_id;sensor_type;location;lat;lon;timestamp;pressure;altitude;pressure_sealevel;temperature;humidity
61740;BME280;47645;45.288;12.038;2023-03-18T00:01:26;1019.1703496224432;;;7.89921875;74.86550275854752
61740;BME280;47645;45.288;12.038;2023-03-18T00:11:27;1019.1277365797109;;;7.6748046875;75.39857248027373
61740;BME280;47645;45.288;12.038;2023-03-18T00:21:27;1019.0959295603368;;;7.573046875;75.46050369352864
61740;BME280;47645;45.288;12.038;2023-03-18T00:31:29;1019.0912702015229;;;7.5677734375;74.99107014469564
61740;BME280;47645;45.288;12.038;2023-03-18T00:41:30;1018.9521032270715;;;7.4302734375;75.41029902185294
61740;BME280;47645;45.288;12.038;2023-03-18T00:51:31;1018.8542607728814;;;7.2416015625;75.73974791440638
61740;BME280;47645;45.288;12.038;2023-03-18T01:01:30;1018.7614097068463;;;7.1193359375;75.82813216612767
61740;BME280;47645;45.288;12.038;2023-03-18T01:11:30;1018.7806764047507;;;7.0837890625;75.41255985332363
61740;BME280;47645;45.288;12.038;2023-03-18T01:21:32;1018.6745757085278;;;6.920703125;75.70718627981795
61740;BME280;47645;45.288;12.038;2023-03-18T01:31:31;1018.5520216785931;;;6.7880859375;75.85425556867997
61740;BME280;47645;45.288;12.038;2023-03-18T01:41:32;1018.3865059289742;;;6.7626953125;75.53305663011336
61740;BME280;47645;45.288;12.038;2023-03-18T01:51:33;1018.305626472606;;;6.619921875;75.76773891416208
61740;BME280;47645;45.288;12.038;2023-03-18T02:01:37;1018.2000746549877;;;6.51796875;75.81831075721132
61740;BME280;47645;45.288;12.038;2023-03-18T02:11:37;1018.1489782222029;;;6.42109375;75.78813091241756
61740;BME280;47645;45.288;12.038;2023-03-18T02:21:40;1018.0966628547305;;;6.308984375;75.8116054598177
61740;BME280;47645;45.288;12.038;2023-03-18T02:31:35;1017.9961481764987;;;6.18671875;76.00415696296335
61740;BME280;47645;45.288;12.038;2023-03-18T02:41:35;1018.0103364492217;;;6.06953125;76.1695495197542
61740;BME280;47645;45.288;12.038;2023-03-18T02:51:37;1018.0057445936887;;;5.97265625;76.31469028601418
61740;BME280;47645;45.288;12.038;2023-03-18T03:01:38;1018.0395624477857;;;5.9064453125;76.06647933060506
61740;BME280;47645;45.288;12.038;2023-03-18T03:11:37;1018.0014999007019;;;5.7994140625;76.49218339901716
61740;BME280;47645;45.288;12.038;2023-03-18T03:21:37;1018.0563792557967;;;5.76875;76.02158773910404
61740;BME280;47645;45.288;12.038;2023-03-18T03:31:38;1018.0921305386396;;;5.64140625;76.07740238703339
61740;BME280;47645;45.288;12.038;2023-03-18T03:41:38;1018.017152713844;;;5.5853515625;76.07738250943245
61740;BME280;47645;45.288;12.038;2023-03-18T03:51:39;1018.0287559650162;;;5.4681640625;76.33485530851156
61740;BME280;47645;45.288;12.038;2023-03-18T04:01:39;1018.089305523137;;;5.3509765625;76.58756627118332
61740;BME280;47645;45.288;12.038;2023-03-18T04:11:40;1018.220122838107;;;5.2388671875;76.53342267357634
61740;BME280;47645;45.288;12.038;2023-03-18T04:21:40;1018.184730413364;;;5.1470703125;76.54056816020164
61740;BME280;47645;45.288;12.038;2023-03-18T04:31:41;1018.1527718174949;;;5.0603515625;76.65465365343772
61740;BME280;47645;45.288;12.038;2023-03-18T04:41:41;1018.1492165435553;;;4.983984375;76.69149598105398
61740;BME280;47645;45.288;12.038;2023-03-18T04:51:42;1018.2106977132077;;;4.86171875;76.92590145620372
61740;BME280;47645;45.288;12.038;2023-03-18T05:01:42;1018.1929385494684;;;4.8158203125;76.82350945851046
61740;BME280;47645;45.288;12.038;2023-03-18T05:11:43;1018.1791781368697;;;4.7087890625;77.0382184893314
61740;BME280;47645;45.288;12.038;2023-03-18T05:21:43;1018.2081628106441;;;4.673046875;77.01893614522791
61740;BME280;47645;45.288;12.038;2023-03-18T05:31:44;1018.2057060057195;;;4.66796875;76.73957409471602
61740;BME280;47645;45.288;12.038;2023-03-18T05:41:44;1018.2464685134152;;;4.678125;76.29081801230832
61740;BME280;47645;45.288;12.038;2023-03-18T05:51:46;1018.2444879249359;;;4.7291015625;76.32788014089135
61740;BME280;47645;45.288;12.038;2023-03-18T06:01:45;1018.3131510397093;;;4.8462890625;75.90054484809522
61740;BME280;47645;45.288;12.038;2023-03-18T06:11:46;1018.3719007918344;;;4.9380859375;76.21722517985934
61740;BME280;47645;45.288;12.038;2023-03-18T06:21:47;1018.4112648746824;;;5.111328125;76.68581940514134
61740;BME280;47645;45.288;12.038;2023-03-18T06:31:47;1018.4637878188018;;;5.401953125;78.7042303544446
61740;BME280;47645;45.288;12.038;2023-03-18T06:41:47;1018.4230304008967;;;5.9216796875;84.141660578261
61740;BME280;47645;45.288;12.038;2023-03-18T06:51:49;1018.4877348259942;;;6.512890625;84.49175902031254
61740;BME280;47645;45.288;12.038;2023-03-18T07:01:49;1018.6027380064495;;;7.4607421875;85.63267063721544
61740;BME280;47645;45.288;12.038;2023-03-18T07:11:49;1018.7042441969082;;;8.138671875;82.73855322293547
61740;BME280;47645;45.288;12.038;2023-03-18T07:21:49;1018.7773861913412;;;9.015234375;74.97782355117371
61740;BME280;47645;45.288;12.038;2023-03-18T07:31:51;1018.8645773991645;;;9.8205078125;71.83820292628113
61740;BME280;47645;45.288;12.038;2023-03-18T07:41:51;1018.8707980414417;;;9.784765625;70.11437199292176
61740;BME280;47645;45.288;12.038;2023-03-18T07:51:51;1018.8916632381583;;;10.2283203125;66.28519141941378
61740;BME280;47645;45.288;12.038;2023-03-18T08:01:52;1018.7771337717361;;;11.1201171875;63.31934397310547
61740;BME280;47645;45.288;12.038;2023-03-18T08:11:52;1018.8593534087054;;;11.5076171875;62.61570944293745
61740;BME280;47645;45.288;12.038;2023-03-18T08:21:52;1019.008214349507;;;12.2515625;59.37416970613054
61740;BME280;47645;45.288;12.038;2023-03-18T08:31:54;1018.9965700896402;;;12.76640625;58.94970809678187
61740;BME280;47645;45.288;12.038;2023-03-18T08:41:53;1019.1270779553379;;;12.5166015625;59.959039056541634
61740;BME280;47645;45.288;12.038;2023-03-18T08:51:54;1019.0824687713175;;;13.29140625;60.03585465239043
61740;BME280;47645;45.288;12.038;2023-03-18T09:01:55;1019.057563291161;;;13.597265625;57.121833391121044
61740;BME280;47645;45.288;12.038;2023-03-18T09:11:56;1019.1060590266638;;;13.4341796875;58.59374654980687
61740;BME280;47645;45.288;12.038;2023-03-18T09:21:56;1019.2190439026471;;;13.587109375;57.18284276017015
61740;BME280;47645;45.288;12.038;2023-03-18T09:31:58;1019.2259159080287;;;13.50546875;56.24049393138531
61740;BME280;47645;45.288;12.038;2023-03-18T09:42:14;1019.1754882726012;;;13.296484375;57.861419102696615
61740;BME280;47645;45.288;12.038;2023-03-18T09:52:10;1019.1952484491751;;;14.152734375;53.43671895202229
61740;BME280;47645;45.288;12.038;2023-03-18T10:01:59;1019.0775878683241;;;14.8205078125;54.131092311324096
61740;BME280;47645;45.288;12.038;2023-03-18T10:12:06;1018.9891328663346;;;15.43203125;52.22375820388571
61740;BME280;47645;45.288;12.038;2023-03-18T10:22:13;1018.9755694416314;;;16.07421875;51.17223195581347
61740;BME280;47645;45.288;12.038;2023-03-18T10:32:08;1018.9234503676188;;;16.70625;46.83947748168755
61740;BME280;47645;45.288;12.038;2023-03-18T10:42:18;1018.8800570414217;;;16.9509765625;48.60004823569929
61740;BME280;47645;45.288;12.038;2023-03-18T10:52:10;1018.7668735138833;;;17.7716796875;47.12527111043403
61740;BME280;47645;45.288;12.038;2023-03-18T11:02:14;1018.7452275311273;;;18.1845703125;46.26573274007987
61740;BME280;47645;45.288;12.038;2023-03-18T11:12:13;1018.7000928015837;;;18.69921875;43.36620963850811
61740;BME280;47645;45.288;12.038;2023-03-18T11:22:19;1018.6307877533203;;;19.08671875;43.032028808836436
61740;BME280;47645;45.288;12.038;2023-03-18T11:32:23;1018.4935437625302;;;19.2599609375;45.34417887507359
61740;BME280;47645;45.288;12.038;2023-03-18T11:42:17;1018.4258738805715;;;19.6525390625;47.24878853356993
61740;BME280;47645;45.288;12.038;2023-03-18T11:52:22;1018.3688650617819;;;19.72890625;47.44458851560907
61740;BME280;47645;45.288;12.038;2023-03-18T12:02:24;1018.3064748345699;;;20.121484375;46.09414387207526
61740;BME280;47645;45.288;12.038;2023-03-18T12:12:25;1018.2594537857685;;;19.9685546875;47.25991391810748
61740;BME280;47645;45.288;12.038;2023-03-18T12:22:23;1018.2401835473615;;;19.948046875;47.59735468972712
61740;BME280;47645;45.288;12.038;2023-03-18T12:32:24;1018.2036652148329;;;20.366015625;46.26958123937123
61740;BME280;47645;45.288;12.038;2023-03-18T12:42:17;1018.0920518628693;;;20.238671875;47.14397982383575
61740;BME280;47645;45.288;12.038;2023-03-18T12:52:23;1018.0397737882147;;;20.01953125;46.367207070668414
61740;BME280;47645;45.288;12.038;2023-03-18T13:02:28;1017.8783445488311;;;19.94296875;48.593077260078026
61740;BME280;47645;45.288;12.038;2023-03-18T13:12:20;1017.8878768243433;;;20.06015625;45.97866479863336
61740;BME280;47645;45.288;12.038;2023-03-18T13:22:44;1017.7940363204714;;;21.08984375;46.27405514486288
61740;BME280;47645;45.288;12.038;2023-03-18T13:32:33;1017.7414829172037;;;20.3966796875;47.22113787657902
61740;BME280;47645;45.288;12.038;2023-03-18T13:42:23;1017.7506282172654;;;20.0142578125;46.53348671871495
61740;BME280;47645;45.288;12.038;2023-03-18T13:52:26;1017.6492541380995;;;19.63203125;45.48650461816678
61740;BME280;47645;45.288;12.038;2023-03-18T14:02:41;1017.6284427308095;;;20.559765625;47.940222354915484
61740;BME280;47645;45.288;12.038;2023-03-18T14:12:38;1017.5952425841975;;;20.46796875;45.313358695297296
61740;BME280;47645;45.288;12.038;2023-03-18T14:22:32;1017.4180087350896;;;20.2794921875;47.379759057262305
61740;BME280;47645;45.288;12.038;2023-03-18T14:32:36;1017.3682806918408;;;19.937890625;50.2456505463991
61740;BME280;47645;45.288;12.038;2023-03-18T14:42:33;1017.3207935846145;;;19.754296875;47.93718447408977
61740;BME280;47645;45.288;12.038;2023-03-18T14:52:31;1017.3007854478956;;;19.6982421875;46.854737734608044
61740;BME280;47645;45.288;12.038;2023-03-18T15:02:33;1017.3734751948025;;;19.5658203125;49.53422408323336
61740;BME280;47645;45.288;12.038;2023-03-18T15:12:30;1017.2921971737967;;;20.03984375;49.040611340610255
61740;BME280;47645;45.288;12.038;2023-03-18T15:22:32;1017.3829944060884;;;19.3517578125;45.19664188943957
61740;BME280;47645;45.288;12.038;2023-03-18T15:32:43;1017.319099845952;;;19.4486328125;47.108117204801246
61740;BME280;47645;45.288;12.038;2023-03-18T15:42:34;1017.2855102024655;;;18.9796875;50.902153725667844
61740;BME280;47645;45.288;12.038;2023-03-18T15:52:40;1017.4192617036257;;;18.571875;54.35521059029479
61740;BME280;47645;45.288;12.038;2023-03-18T16:02:36;1017.3633865807423;;;17.7818359375;53.24855792185353
61740;BME280;47645;45.288;12.038;2023-03-18T16:12:37;1017.4311436224904;;;17.0427734375;56.64101174917709
61740;BME280;47645;45.288;12.038;2023-03-18T16:22:38;1017.5958502873794;;;16.6298828125;58.459321762416145
61740;BME280;47645;45.288;12.038;2023-03-18T16:32:39;1017.5454550257786;;;16.2375;57.25941056255365
61740;BME280;47645;45.288;12.038;2023-03-18T16:42:39;1017.5585160028553;;;15.737890625;59.95090813823967
61740;BME280;47645;45.288;12.038;2023-03-18T16:52:42;1017.6378188382951;;;15.2791015625;62.749466184715516
61740;BME280;47645;45.288;12.038;2023-03-18T17:02:41;1017.7408291671625;;;14.7541015625;64.63491447903274
61740;BME280;47645;45.288;12.038;2023-03-18T17:12:46;1017.8772818428239;;;14.443359375;64.99872794189814
61740;BME280;47645;45.288;12.038;2023-03-18T17:22:43;1018.022870946624;;;14.035546875;67.9002420016578
61740;BME280;47645;45.288;12.038;2023-03-18T17:32:46;1017.9993689462568;;;13.73984375;68.81644862976043
61740;BME280;47645;45.288;12.038;2023-03-18T17:42:46;1017.9713430493404;;;13.5462890625;69.46516346077377
61740;BME280;47645;45.288;12.038;2023-03-18T17:52:47;1018.0023087737792;;;13.2302734375;70.44589159631414
61740;BME280;47645;45.288;12.038;2023-03-18T18:02:46;1018.2125994170829;;;12.96015625;71.19149662274837
61740;BME280;47645;45.288;12.038;2023-03-18T18:12:47;1018.0802228178669;;;12.6185546875;72.222963627978
61740;BME280;47645;45.288;12.038;2023-03-18T18:22:50;1018.0792441207383;;;12.3791015625;72.66237326140717
61740;BME280;47645;45.288;12.038;2023-03-18T18:32:48;1018.1413304344251;;;12.1548828125;73.39771437543182
61740;BME280;47645;45.288;12.038;2023-03-18T18:42:50;1018.2839036953486;;;11.88984375;73.90616333731889
61740;BME280;47645;45.288;12.038;2023-03-18T18:52:50;1018.5054049020581;;;11.6501953125;74.2655473694053
61740;BME280;47645;45.288;12.038;2023-03-18T19:02:52;1018.5869667739593;;;11.26796875;76.08679376590432
61740;BME280;47645;45.288;12.038;2023-03-18T19:12:52;1018.7205460417706;;;11.0845703125;76.5333193244515
61740;BME280;47645;45.288;12.038;2023-03-18T19:22:53;1018.7081570776392;;;11.05390625;75.97968004673412
61740;BME280;47645;45.288;12.038;2023-03-18T19:32:52;1018.8208461949438;;;10.8857421875;76.09895912509934
61740;BME280;47645;45.288;12.038;2023-03-18T19:42:54;1018.6509396152832;;;10.6615234375;76.77849435312856
61740;BME280;47645;45.288;12.038;2023-03-18T19:52:56;1018.5975460525574;;;10.52890625;76.8624993128766
61740;BME280;47645;45.288;12.038;2023-03-18T20:02:57;1018.7353480900463;;;10.416796875;76.9626461426589
61740;BME280;47645;45.288;12.038;2023-03-18T20:12:56;1018.7791388229635;;;10.284375;77.02342011653009
61740;BME280;47645;45.288;12.038;2023-03-18T20:22:58;1018.7078882317254;;;10.090625;77.38971809200024
61740;BME280;47645;45.288;12.038;2023-03-18T20:32:57;1018.7771470841028;;;9.958203125;77.72057590982631
61740;BME280;47645;45.288;12.038;2023-03-18T20:42:57;1018.848933177327;;;9.861328125;77.9218902423505
61740;BME280;47645;45.288;12.038;2023-03-18T20:52:58;1018.7755353498303;;;9.86640625;77.24655247069401
61740;BME280;47645;45.288;12.038;2023-03-18T21:03:01;1018.4890776988785;;;9.565625;78.87036348072321
61740;BME280;47645;45.288;12.038;2023-03-18T21:12:59;1018.6476282709252;;;9.4025390625;80.5423162537031
61740;BME280;47645;45.288;12.038;2023-03-18T21:23:00;1018.7801319030682;;;9.41796875;79.27613692886838
61740;BME280;47645;45.288;12.038;2023-03-18T21:33:01;1018.9294384425516;;;9.3619140625;79.4750622867779
61740;BME280;47645;45.288;12.038;2023-03-18T21:43:21;1018.8796968537262;;;9.45859375;78.25033672940683
61740;BME280;47645;45.288;12.038;2023-03-18T21:53:02;1018.8455831686343;;;9.0712890625;82.90710452297022
61740;BME280;47645;45.288;12.038;2023-03-18T22:03:08;1019.048929831686;;;8.6025390625;90.46657967907969
61740;BME280;47645;45.288;12.038;2023-03-18T22:13:15;1018.9209060985467;;;8.6380859375;97.00844427305239
61740;BME280;47645;45.288;12.038;2023-03-18T22:23:14;1018.7440775024994;;;8.597265625;100
61740;BME280;47645;45.288;12.038;2023-03-18T22:33:04;1018.8418558049494;;;8.439453125;96.62088980717851
61740;BME280;47645;45.288;12.038;2023-03-18T22:43:16;1018.9250986348572;;;8.362890625;98.47812083560615
61740;BME280;47645;45.288;12.038;2023-03-18T22:53:07;1018.8761129912074;;;8.449609375;100
61740;BME280;47645;45.288;12.038;2023-03-18T23:03:09;1018.8121898212322;;;8.148828125;99.84004811037005
61740;BME280;47645;45.288;12.038;2023-03-18T23:13:15;1018.7084690776559;;;8.240625;99.7167648017521
61740;BME280;47645;45.288;12.038;2023-03-18T23:23:07;1018.7183522595166;;;8.2763671875;99.36378256747183
61740;BME280;47645;45.288;12.038;2023-03-18T23:33:08;1018.9585901224242;;;8.0978515625;91.78472292050247
61740;BME280;47645;45.288;12.038;2023-03-18T23:43:08;1018.8630489942911;;;8.1845703125;100
61740;BME280;47645;45.288;12.038;2023-03-18T23:53:09;1018.8498905936087;;;8.138671875;100
